Nova Alvorada, Brazil
Current Conditions -  °F | °C
As of 1:00 PM on Sunday 23 Nov 2014 (Local Time) from SBCG Reporting Station
Rain Showers Rain Showers  
Wind Chill: 77°   Ceiling: 4000
Heat Index: 79°   Visibility: 6mi
Dew Point: 68°   Wind: 12mph
Humidity: 74%   Direction: 280°W
Pressure: NA   Gusts: NA
Location:  21.47°S, 54.37°W
Report Text: SBCG 231600Z 28010KT 9999 VCSH BKN040 FEW050TCU SCT100 25/20 Q1014
Loading
Personal Weather Stations






























Interactive Weather Map New forecast layout! Learn more

10-Day Weather Forecast

Advertisements
Track Severe Weather on mobile